Palchem 1 — 9HA2097 — position and weather

sailwx.info

Track history (hours):
 
Tides and Currents Weather Stations Pressure Air Temp Water Temp Dewpoint Dewpoint Depression Visibility Wind Speed Wind Dir Waves Ship Positions

Palchem 1

Last reported at 2016-Jan-31 03:33 UTC. Time now 2016-Feb-11 17:08 UTC.
Position N 46°28' E 030°51'.
Warning: this ship's position is 11 days out of date.

Length 143 m; draft 6.3 m.

Type: Ship (hazmat cat C). MMSI: 249955000.

Date/timePositionNaut miles runAvg speedWind from/ knotsBaromVisibWave heightAir tempDewpointWater temp
2016-Jan-31 03:33N 46°28' E 030°51'16 8.0
2016-Jan-31 01:31N 46°13' E 031°02'1210.5
2016-Jan-31 00:21N 46°01' E 031°05'1513.0
2016-Jan-30 23:12N 45°47' E 030°58'29810.0
2016-Jan-29 17:31N 41°02' E 028°60'7 6.3
2016-Jan-29 16:27N 40°56' E 028°54'  
2016-Jan-24 08:32N 35°55' E 014°50'2 2.1
2016-Jan-24 07:29N 35°54' E 014°48'0 0.0
2016-Jan-24 06:32N 35°54' E 014°48'0 0.0
2016-Jan-24 05:31N 35°54' E 014°48'0 0.0
2016-Jan-24 04:28N 35°54' E 014°48'0 0.0
2016-Jan-24 03:31N 35°54' E 014°48'0 0.0
2016-Jan-24 02:22N 35°54' E 014°48'6 7.1
2016-Jan-24 01:33N 35°58' E 014°42'1211.9
2016-Jan-24 00:33N 36°05' E 014°30'1212.0
2016-Jan-23 23:33N 36°09' E 014°16'1312.5
2016-Jan-23 22:33N 36°13' E 014°01'1313.0
2016-Jan-23 21:33N 36°17' E 013°46'61012.4
2016-Jan-21 20:24N 39°19' E 001°29'1012.2
2016-Jan-21 19:33N 39°24' E 001°18'  
Track history (hours):
 
Tides and Currents Weather Stations Pressure Air Temp Water Temp Dewpoint Dewpoint Depression Visibility Wind Speed Wind Dir Waves Ship Positions

Palchem 1

Last reported at 2016-Jan-31 03:33 UTC. Time now 2016-Feb-11 17:09 UTC.
Position N 46°28' E 030°51'.
Warning: this ship's position is 11 days out of date.

Length 143 m; draft 6.3 m.

Type: Ship (hazmat cat C). MMSI: 249955000.

Date/timePositionNaut miles runAvg speedWind from/ knotsBaromVisibWave heightAir tempDewpointWater temp
2016-Jan-31 03:33N 46°28' E 030°51'16 8.0
2016-Jan-31 01:31N 46°13' E 031°02'1210.5
2016-Jan-31 00:21N 46°01' E 031°05'1513.0
2016-Jan-30 23:12N 45°47' E 030°58'29810.0
2016-Jan-29 17:31N 41°02' E 028°60'7 6.3
2016-Jan-29 16:27N 40°56' E 028°54'  
2016-Jan-24 08:32N 35°55' E 014°50'2 2.1
2016-Jan-24 07:29N 35°54' E 014°48'0 0.0
2016-Jan-24 06:32N 35°54' E 014°48'0 0.0
2016-Jan-24 05:31N 35°54' E 014°48'0 0.0
2016-Jan-24 04:28N 35°54' E 014°48'0 0.0
2016-Jan-24 03:31N 35°54' E 014°48'0 0.0
2016-Jan-24 02:22N 35°54' E 014°48'6 7.1
2016-Jan-24 01:33N 35°58' E 014°42'1211.9
2016-Jan-24 00:33N 36°05' E 014°30'1212.0
2016-Jan-23 23:33N 36°09' E 014°16'1312.5
2016-Jan-23 22:33N 36°13' E 014°01'1313.0
2016-Jan-23 21:33N 36°17' E 013°46'61012.4
2016-Jan-21 20:24N 39°19' E 001°29'1012.2
2016-Jan-21 19:33N 39°24' E 001°18'  

Dump ship's entire track history